Latest Weather Observations for Cleve Airport

IDS60801

Issued at 4:52 pm CST Wednesday 23 September 2020 (issued every 10 minutes, with the page automatically refreshed every 10 minutes)

About weather observations | Map of weather stations | Latest weather observations for SA | Other Formats
Station Details ID: 018116 Name: CLEVE AERODROME Lat: -33.71 Lon: 136.50 Height: 175.0 m
Data from the previous 72 hours. | See also: Recent months at Cleve Airport
Date/Time
CST
Temp
°C
App
Temp
°C
Dew
Point
°C
Rel
Hum
%
Delta-T
°C
Wind Press
QNH
hPa
Press
MSL
hPa
Rain since
9am
mm
Dir  Spd
km/h
Gust
km/h
Spd
kts
Gust
kts
23/04:30pm 15.7 9.1 1.8 39 6.2 WSW 26 37 14 20 1020.5 1020.4 0.6
23/04:00pm 16.1 8.9 1.0 36 6.6 WSW 28 39 15 21 1020.3 1020.2 0.6
23/03:30pm 15.2 7.9 2.4 42 5.7 WSW 30 37 16 20 1020.3 1020.2 0.6
23/03:00pm 15.9 8.3 3.7 44 5.7 WSW 33 46 18 25 1020.4 1020.3 0.6
23/02:30pm 15.9 9.1 3.0 42 5.9 WSW 28 43 15 23 1020.4 1020.3 0.6
23/02:00pm 16.2 8.7 1.1 36 6.7 WSW 30 41 16 22 1020.5 1020.4 0.6
23/01:39pm 16.1 9.1 3.9 44 5.7 WSW 30 48 16 26 1020.6 1020.5 0.6
23/01:30pm 15.5 9.1 5.4 51 4.8 WSW 28 37 15 20 1020.7 1020.6 0.6
23/01:00pm 13.4 6.7 7.4 67 3.0 WSW 32 48 17 26 1021.1 1021.0 0.6
23/12:55pm 13.8 7.5 7.3 65 3.2 WSW 30 48 16 26 1021.1 1021.0 0.6
23/12:30pm 13.6 8.4 8.9 73 2.4 W 26 37 14 20 1021.1 1021.0 0.6
23/12:08pm 12.4 6.6 8.1 75 2.1 W 28 50 15 27 1021.4 1021.3 0.6
23/12:00pm 13.5 8.0 7.5 67 3.0 WSW 26 33 14 18 1021.3 1021.2 0.6
23/11:30am 13.8 9.9 9.3 74 2.3 WSW 20 30 11 16 1021.7 1021.6 0.0
23/11:00am 13.9 9.5 7.2 64 3.3 W 20 30 11 16 1021.8 1021.7 0.0
23/10:30am 14.6 8.0 5.9 56 4.2 WSW 30 43 16 23 1021.7 1021.6 0.0
23/10:00am 13.5 7.4 6.6 63 3.3 WSW 28 39 15 21 1021.8 1021.7 0.0
23/09:30am 12.7 6.0 5.8 63 3.3 WSW 30 43 16 23 1021.8 1021.7 0.0
23/09:00am 12.6 6.0 6.2 65 3.0 WSW 30 43 16 23 1021.7 1021.6 0.0
23/08:30am 11.9 6.2 6.8 71 2.4 WSW 26 33 14 18 1021.5 1021.4 0.0
23/08:00am 10.8 6.2 6.7 76 2.0 W 20 28 11 15 1021.1 1021.0 0.0
23/07:30am 9.7 5.6 6.2 79 1.6 WNW 17 24 9 13 1021.0 1020.9 0.0
23/07:00am 8.7 4.6 6.0 83 1.2 WNW 17 24 9 13 1020.6 1020.5 0.0
23/06:30am 8.2 3.6 5.8 85 1.1 WNW 19 26 10 14 1020.3 1020.2 0.0
23/06:00am 8.3 3.8 5.9 85 1.1 WNW 19 26 10 14 1019.8 1019.7 0.0
23/05:30am 8.2 4.1 6.0 86 1.0 WNW 17 20 9 11 1019.5 1019.4 0.0
23/05:00am 8.4 4.4 6.5 88 0.9 WNW 17 22 9 12 1019.3 1019.2 0.0
23/04:30am 8.6 4.3 7.1 90 0.7 WNW 19 28 10 15 1019.1 1019.0 0.0
23/04:00am 8.7 4.2 6.8 88 0.9 WNW 20 28 11 15 1019.0 1018.8 0.0
23/03:30am 8.7 4.3 6.5 86 1.0 WNW 19 28 10 15 1018.8 1018.6 0.0
23/03:00am 9.1 4.7 6.7 85 1.1 WNW 19 26 10 14 1018.9 1018.7 0.0
23/02:30am 9.6 5.6 6.7 82 1.4 W 17 26 9 14 1018.9 1018.7 0.0
23/02:00am 10.1 5.6 5.9 75 2.0 WNW 19 28 10 15 1019.2 1019.1 0.0
23/01:30am 10.4 6.2 5.8 73 2.1 W 17 24 9 13 1019.2 1019.1 0.0
23/01:00am 10.4 6.2 5.6 72 2.2 WNW 17 22 9 12 1019.4 1019.3 0.0
23/12:30am 10.3 5.6 5.3 71 2.3 W 19 24 10 13 1019.4 1019.3 0.0
23/12:00am 10.0 5.3 5.0 71 2.3 WNW 19 26 10 14 1019.4 1019.3 0.0
 
Date/Time
CST
Temp
°C
App
Temp
°C
Dew
Point
°C
Rel
Hum
%
Delta-T
°C
Wind Press
QNH
hPa
Press
MSL
hPa
Rain since
9am
mm
Dir  Spd
km/h
Gust
km/h
Spd
kts
Gust
kts
22/11:30pm 9.9 5.1 4.7 70 2.3 W 19 24 10 13 1019.3 1019.2 0.0
22/11:00pm 10.0 5.2 4.8 70 2.4 WNW 19 24 10 13 1019.4 1019.3 0.0
22/10:30pm 9.8 4.8 4.8 71 2.3 WNW 20 30 11 16 1019.4 1019.3 0.0
22/10:00pm 9.9 5.5 4.9 71 2.3 WNW 17 26 9 14 1019.4 1019.3 0.0
22/09:30pm 10.0 5.6 4.8 70 2.4 WNW 17 24 9 13 1019.4 1019.3 0.0
22/09:00pm 10.2 5.4 4.4 67 2.6 W 19 26 10 14 1019.3 1019.2 0.0
22/08:30pm 10.7 5.6 4.2 64 2.9 W 20 30 11 16 1019.0 1018.8 0.0
22/08:00pm 11.0 5.9 4.0 62 3.1 W 20 28 11 15 1018.6 1018.4 0.0
22/07:30pm 11.3 5.4 3.8 60 3.4 W 24 32 13 17 1018.3 1018.1 0.0
22/07:00pm 11.8 5.6 4.1 59 3.5 WSW 26 39 14 21 1017.8 1017.7 0.0
22/06:30pm 12.5 5.1 4.0 56 3.9 WSW 32 46 17 25 1017.2 1017.1 0.0
22/06:00pm 13.3 5.8 3.7 52 4.4 WSW 32 43 17 23 1016.7 1016.6 0.0
22/05:43pm 13.9 6.1 3.1 48 4.9 WSW 33 52 18 28 1016.5 1016.4 0.0
22/05:30pm 14.4 6.7 3.2 47 5.1 WSW 33 50 18 27 1016.3 1016.2 0.0
22/05:28pm 14.4 6.8 2.9 46 5.2 WSW 32 50 17 27 1016.2 1016.1 0.0
22/05:00pm 15.2 6.4 3.7 46 5.3 WSW 39 54 21 29 1015.8 1015.7 0.0
22/04:30pm 16.0 7.5 3.4 43 5.8 WSW 37 48 20 26 1015.4 1015.3 0.0
22/04:00pm 16.5 8.0 3.2 41 6.1 WSW 37 56 20 30 1015.1 1015.0 0.0
22/03:33pm 16.9 8.2 2.1 37 6.7 WSW 37 59 20 32 1014.8 1014.7 0.0
22/03:30pm 16.7 8.0 2.0 37 6.6 WSW 37 50 20 27 1014.9 1014.8 0.0
22/03:13pm 17.0 8.0 2.6 38 6.6 WSW 39 57 21 31 1014.9 1014.8 0.0
22/03:00pm 17.3 8.8 3.2 39 6.6 WSW 37 54 20 29 1014.8 1014.7 0.0
22/02:36pm 17.3 8.7 2.5 37 6.8 WSW 37 56 20 30 1014.9 1014.8 0.0
22/02:30pm 16.9 7.3 1.0 34 7.0 WSW 41 56 22 30 1014.8 1014.7 0.0
22/02:18pm 17.1 8.3 1.5 35 7.0 WSW 37 56 20 30 1014.6 1014.5 0.0
22/02:00pm 16.7 7.2 1.6 36 6.8 WSW 41 54 22 29 1014.7 1014.6 0.0
22/01:38pm 17.4 8.8 2.6 37 6.8 W 37 56 20 30 1014.7 1014.6 0.0
22/01:30pm 17.5 8.9 2.7 37 6.8 W 37 50 20 27 1014.7 1014.6 0.0
22/01:05pm 17.2 8.8 3.5 40 6.4 W 37 56 20 30 1014.7 1014.6 0.0
22/01:00pm 17.2 8.5 2.0 36 6.9 WSW 37 52 20 28 1014.7 1014.6 0.0
22/12:30pm 16.7 8.2 3.4 41 6.2 W 37 56 20 30 1014.9 1014.8 0.0
22/12:08pm 16.6 8.3 4.0 43 5.9 WSW 37 56 20 30 1014.8 1014.7 0.0
22/12:00pm 15.8 7.8 3.6 44 5.7 W 35 50 19 27 1014.9 1014.8 0.0
22/11:30am 16.0 7.4 4.4 46 5.5 WSW 39 56 21 30 1014.9 1014.8 0.0
22/11:02am 15.9 7.2 4.3 46 5.5 W 39 57 21 31 1015.0 1014.9 0.0
22/11:00am 15.7 7.3 3.5 44 5.6 W 37 54 20 29 1015.1 1015.0 0.0
22/10:43am 15.8 8.7 5.4 50 5.0 W 32 50 17 27 1015.0 1014.9 0.0
22/10:30am 14.6 6.6 5.9 56 4.2 W 37 50 20 27 1015.1 1015.0 0.0
22/10:17am 13.9 6.7 6.0 59 3.8 WSW 33 56 18 30 1014.9 1014.8 0.0
22/10:00am 14.2 7.9 7.5 64 3.3 W 30 44 16 24 1014.8 1014.7 0.0
22/09:30am 12.7 6.4 7.6 71 2.5 W 30 41 16 22 1014.8 1014.7 0.0
22/09:03am 12.3 6.0 7.4 72 2.4 W 30 48 16 26 1014.6 1014.5 0.0
22/09:00am 12.5 6.7 8.0 74 2.2 W 28 43 15 23 1014.6 1014.5 0.8
22/08:30am 12.4 7.5 8.3 76 2.0 WNW 24 37 13 20 1014.3 1014.2 0.8
22/08:00am 11.2 5.8 8.1 81 1.5 WNW 26 37 14 20 1013.9 1013.7 0.8
22/07:30am 10.7 6.0 7.9 83 1.4 WNW 22 39 12 21 1013.6 1013.4 0.8
22/07:00am 9.6 4.8 7.4 86 1.1 WNW 22 35 12 19 1013.1 1012.9 0.8
22/06:30am 9.7 4.5 7.3 85 1.1 WNW 24 35 13 19 1012.8 1012.6 0.6
22/06:00am 9.5 4.7 7.4 87 1.0 WNW 22 32 12 17 1012.3 1012.1 0.0
22/05:30am 9.6 4.9 7.7 88 0.9 WNW 22 33 12 18 1011.9 1011.8 0.0
22/05:00am 9.7 3.7 7.1 84 1.2 WNW 28 39 15 21 1011.4 1011.3 0.0
22/04:30am 10.4 4.0 6.9 79 1.7 WNW 30 44 16 24 1011.0 1010.9 0.0
22/04:00am 10.3 4.2 6.8 79 1.7 WNW 28 41 15 22 1010.5 1010.4 0.0
22/03:30am 9.9 4.2 6.6 80 1.6 WNW 26 37 14 20 1010.4 1010.3 0.0
22/03:00am 10.0 4.7 6.9 81 1.5 WNW 24 33 13 18 1010.3 1010.2 0.0
22/02:30am 10.2 3.9 7.4 83 1.4 WNW 30 44 16 24 1010.4 1010.3 0.0
22/02:00am 10.4 4.5 7.5 82 1.4 WNW 28 43 15 23 1010.5 1010.4 0.0
22/01:30am 10.0 4.5 7.4 84 1.3 WNW 26 37 14 20 1010.6 1010.5 0.0
22/01:02am 10.5 3.9 7.6 82 1.4 WNW 32 50 17 27 1010.7 1010.6 0.0
22/01:00am 10.5 4.3 7.7 83 1.4 WNW 30 46 16 25 1010.7 1010.6 0.0
22/12:54am 10.5 4.7 7.9 84 1.3 WNW 28 46 15 25 1010.7 1010.6 0.0
22/12:30am 10.3 5.3 7.9 85 1.2 WNW 24 37 13 20 1010.6 1010.5 0.0
22/12:00am 10.1 4.0 8.2 88 0.9 WNW 30 50 16 27 1010.8 1010.7 0.0
 
Date/Time
CST
Temp
°C
App
Temp
°C
Dew
Point
°C
Rel
Hum
%
Delta-T
°C
Wind Press
QNH
hPa
Press
MSL
hPa
Rain since
9am
mm
Dir  Spd
km/h
Gust
km/h
Spd
kts
Gust
kts
21/11:30pm 11.4 4.7 7.3 76 2.0 WNW 32 52 17 28 1010.8 1010.7 0.0
21/11:00pm 11.1 4.8 7.2 77 1.9 WNW 30 41 16 22 1010.6 1010.5 0.0
21/10:30pm 10.5 4.9 7.0 79 1.7 WNW 26 35 14 19 1010.8 1010.7 0.0
21/10:01pm 11.0 5.1 7.5 79 1.7 WNW 28 50 15 27 1010.9 1010.8 0.0
21/10:00pm 11.1 5.3 7.8 80 1.6 WNW 28 41 15 22 1011.0 1010.9 0.0
21/09:41pm 11.3 5.6 8.3 82 1.5 WNW 28 48 15 26 1010.9 1010.8 0.0
21/09:30pm 11.4 5.7 8.3 81 1.5 WNW 28 37 15 20 1010.7 1010.6 0.0
21/09:00pm 11.9 6.5 8.2 78 1.8 WNW 26 37 14 20 1010.4 1010.3 0.0
21/08:30pm 12.1 5.8 7.2 72 2.4 WNW 30 46 16 25 1010.1 1010.0 0.0
21/08:00pm 12.5 5.9 7.6 72 2.4 W 32 52 17 28 1009.6 1009.5 0.0
21/07:30pm 12.9 7.1 7.8 71 2.5 WNW 28 46 15 25 1009.1 1008.9 0.0
21/07:03pm 13.3 7.6 8.2 71 2.6 WNW 28 46 15 25 1008.4 1008.2 0.0
21/07:00pm 13.3 7.7 8.6 73 2.4 WNW 28 41 15 22 1008.4 1008.2 0.0
21/06:30pm 13.2 8.1 9.1 76 2.1 WNW 26 41 14 22 1007.8 1007.6 0.0
21/06:00pm 13.7 7.7 8.7 72 2.5 WNW 30 41 16 22 1007.4 1007.2 0.0
21/05:30pm 14.2 7.5 8.2 67 3.0 WNW 33 54 18 29 1007.0 1006.8 0.0
21/05:00pm 13.5 6.3 7.7 68 2.9 WNW 35 54 19 29 1006.7 1006.5 0.0
21/04:34pm 14.4 6.3 7.2 62 3.6 WNW 39 61 21 33 1006.8 1006.6 0.0
21/04:30pm 14.6 6.2 7.4 62 3.6 W 41 56 22 30 1006.8 1006.6 0.0
21/04:17pm 14.3 5.5 8.0 66 3.2 W 44 70 24 38 1006.8 1006.6 0.0
21/04:00pm 14.3 4.8 8.3 67 3.0 W 48 74 26 40 1006.3 1006.1 0.0
21/03:58pm 15.9 6.5 7.1 56 4.4 W 46 74 25 40 1006.0 1005.9 0.0
21/03:30pm 18.7 8.4 4.5 39 6.9 WNW 48 69 26 37 1005.4 1005.3 0.0
21/03:00pm 18.7 9.1 4.5 39 6.9 W 44 65 24 35 1005.0 1004.9 0.0
21/02:31pm 19.4 9.7 4.0 36 7.4 W 44 65 24 35 1004.9 1004.8 0.0
21/02:30pm 19.3 9.6 3.9 36 7.4 W 44 61 24 33 1004.9 1004.8 0.0
21/02:00pm 19.1 9.1 4.5 38 7.1 W 46 67 25 36 1005.0 1004.9 0.0
21/01:30pm 18.4 9.0 4.2 39 6.8 WNW 43 61 23 33 1004.7 1004.6 0.0
21/01:00pm 18.9 8.9 4.3 38 7.0 WNW 46 69 25 37 1005.0 1004.9 0.0
21/12:30pm 18.8 9.4 5.3 41 6.7 WNW 44 65 24 35 1005.0 1004.9 0.0
21/12:03pm 18.6 8.9 5.8 43 6.3 W 46 69 25 37 1005.0 1004.9 0.0
21/12:00pm 18.3 9.1 6.5 46 5.9 W 44 61 24 33 1005.0 1004.9 0.0
21/11:30am 18.8 9.2 4.6 39 6.9 WNW 44 63 24 34 1005.0 1004.9 0.0
21/11:00am 17.7 8.4 5.0 43 6.1 WNW 43 65 23 35 1005.1 1005.0 0.0
21/10:30am 17.4 8.0 4.7 43 6.1 WNW 43 74 23 40 1005.2 1005.1 0.0
21/10:00am 16.9 7.3 4.6 44 5.9 WNW 44 76 24 41 1005.3 1005.2 0.0
21/09:30am 16.1 5.4 4.8 47 5.4 WNW 50 76 27 41 1005.4 1005.3 0.0
21/09:00am 15.3 6.0 3.1 44 5.6 NW 41 65 22 35 1005.6 1005.5 0.0
21/08:30am 14.5 6.1 1.8 42 5.6 NW 35 57 19 31 1005.6 1005.5 0.0
21/08:06am 13.6 4.7 0.9 42 5.5 NW 37 56 20 30 1005.5 1005.4 0.0
21/08:00am 13.5 4.6 0.5 41 5.5 NNW 37 54 20 29 1005.4 1005.3 0.0
21/07:30am 11.4 4.5 2.4 54 3.9 NNW 28 39 15 21 1005.3 1005.2 0.0
21/07:00am 9.4 2.2 3.2 65 2.7 N 30 41 16 22 1005.0 1004.9 0.0
21/06:30am 8.2 0.6 3.7 73 2.0 N 33 43 18 23 1005.1 1005.0 0.0
21/06:00am 7.9 1.2 3.6 74 1.9 N 28 35 15 19 1005.3 1005.2 0.0
21/05:30am 8.6 2.2 3.2 69 2.3 NNW 26 35 14 19 1005.3 1005.2 0.0
21/05:00am 8.8 2.4 3.2 68 2.4 N 26 35 14 19 1005.3 1005.2 0.0
21/04:30am 9.6 4.1 2.0 59 3.2 NNW 20 28 11 15 1005.3 1005.2 0.0
21/04:00am 9.8 4.4 2.6 61 3.1 NNW 20 28 11 15 1005.2 1005.1 0.0
21/03:30am 10.2 4.1 3.0 61 3.2 NW 24 33 13 18 1005.2 1005.1 0.0
21/03:00am 10.2 4.5 2.8 60 3.2 NW 22 32 12 17 1005.1 1005.0 0.0
21/02:30am 10.7 4.7 3.3 60 3.3 WNW 24 35 13 19 1005.3 1005.2 0.0
21/02:00am 10.8 4.8 3.1 59 3.4 WNW 24 35 13 19 1005.6 1005.5 0.0
21/01:30am 11.1 4.7 3.2 58 3.5 WNW 26 37 14 20 1006.4 1006.2 0.0
21/01:00am 10.9 4.5 3.0 58 3.5 WNW 26 41 14 22 1006.8 1006.6 0.0
21/12:30am 11.0 5.1 3.8 61 3.2 WNW 24 37 13 20 1007.2 1007.0 0.0
21/12:00am 10.9 5.4 4.1 63 3.1 WNW 22 32 12 17 1007.4 1007.2 0.0
 
Date/Time
CST
Temp
°C
App
Temp
°C
Dew
Point
°C
Rel
Hum
%
Delta-T
°C
Wind Press
QNH
hPa
Press
MSL
hPa
Rain since
9am
mm
Dir  Spd
km/h
Gust
km/h
Spd
kts
Gust
kts
20/11:30pm 11.5 5.7 4.3 61 3.3 WNW 24 35 13 19 1007.7 1007.5 0.0
20/11:00pm 12.1 5.8 3.6 56 3.8 WNW 26 39 14 21 1007.8 1007.6 0.0
20/10:30pm 12.4 6.6 4.6 59 3.6 WNW 24 35 13 19 1008.2 1008.0 0.0
20/10:00pm 13.0 6.9 4.7 57 3.9 WNW 26 39 14 21 1008.1 1007.9 0.0
20/09:30pm 13.6 7.6 5.5 58 3.9 WNW 26 43 14 23 1007.9 1007.7 0.0
20/09:00pm 13.7 7.4 5.8 59 3.8 WNW 28 41 15 22 1007.7 1007.5 0.0
20/08:30pm 14.2 5.5 4.2 51 4.6 W 39 59 21 32 1007.4 1007.2 0.0
20/08:00pm 14.6 7.4 5.9 56 4.2 W 33 52 18 28 1006.7 1006.5 0.0
20/07:30pm 15.1 7.9 6.1 55 4.4 W 33 57 18 31 1005.9 1005.8 0.0
20/07:00pm 15.3 9.2 6.8 57 4.2 W 28 46 15 25 1005.2 1005.1 0.0
20/06:57pm 15.3 9.2 6.6 56 4.3 W 28 46 15 25 1005.0 1004.9 0.0
20/06:30pm 15.7 8.6 8.2 61 3.8 W 35 46 19 25 1004.8 1004.7 0.0
20/06:00pm 17.2 9.5 7.3 52 5.0 W 37 57 20 31 1004.0 1003.8 0.0
20/05:30pm 18.3 10.2 8.6 53 5.1 W 41 61 22 33 1003.4 1003.2 0.0
20/05:01pm 18.9 11.4 9.4 54 5.1 W 39 57 21 31 1002.7 1002.5 0.0
20/05:00pm 18.8 11.3 9.6 55 4.9 W 39 56 21 30 1002.7 1002.5 0.0

Other formats

Comma delimited format used in spreadsheet applications
http://www.bom.gov.au/fwo/IDS60801/IDS60801.94662.axf

JavaScript Object Notation format (JSON) in row-major order
http://www.bom.gov.au/fwo/IDS60801/IDS60801.94662.json

Data quality

Most of these data are generated automatically and are frequently updated. Quality checks on data are not normally performed. It is possible for incorrect values to appear. Refer to information at About Latest Weather Observations and please check the disclaimer before using these data.